Observations for Trim Market St
| Time | AQI | Temp °C | Hum % | Pres Pa | CO μg/m³ | H₂S μg/m³ | NO μg/m³ | NO₂ μg/m³ | O₃ μg/m³ | SO₂ μg/m³ | PM1 μg/m³ | PM2.5 μg/m³ | PM10 μg/m³ |
|---|---|---|---|---|---|---|---|---|---|---|---|---|---|
| Friday 21 August 2026 | |||||||||||||
| 07:18 | 2 | 12.6 | 79 | 17,160 | 0.91 | 0 | 5.53 | 35.95 | 10.43 | 0 | 0.71 | 1.67 | 4.1 |
| 07:11 | 2 | 11.5 | 80 | 2,147,483,647 | 0.75 | 0 | 3.08 | 18.61 | 38.15 | 0 | 0.71 | 2.09 | 4.71 |
| 07:06 | 2 | 10.9 | 81 | 2,147,483,647 | 0.72 | 0 | 6.39 | 15.59 | 38.63 | 0 | 0.71 | 1.61 | 4.15 |
| 07:05 | 2 | 10.8 | 81 | 2,147,483,647 | 0.72 | 0 | 6.64 | 18.39 | 37.93 | 0 | 1.43 | 3.02 | 6.97 |
| 07:04 | 2 | 10.7 | 81 | 2,147,483,647 | 0.68 | 0 | 9.18 | 17.67 | 35.78 | 0 | 1.43 | 3.02 | 8.09 |
| 07:03 | 2 | 10.6 | 81 | 2,147,483,647 | 0.67 | 0 | 8.69 | 18.5 | 33.31 | 0 | 0.71 | 1.6 | 5.85 |
| 07:02 | 2 | 10.5 | 81 | 2,147,483,647 | 0.67 | 0 | 10.4 | 21.35 | 24.48 | 0 | 1.43 | 2.54 | 5.28 |
| 07:01 | 2 | 10.3 | 81 | 2,147,483,647 | 0.66 | 0 | 8.98 | 15.02 | 33.92 | 0 | 0.71 | 2.54 | 5.85 |
| 07:00 | 2 | 10.2 | 81 | 2,147,483,647 | 0.65 | 0 | 7.18 | 14.79 | 32.55 | 0 | 1.43 | 3.01 | 5.85 |
| 06:59 | 2 | 10.2 | 81 | 2,147,483,647 | 0.66 | 0 | 6.14 | 15.99 | 30.51 | 0 | 1.43 | 2.54 | 5.29 |
| 06:58 | 2 | 10.1 | 81 | 2,147,483,647 | 0.64 | 0 | 6.04 | 13.9 | 31.35 | 0 | 1.43 | 2.54 | 5.29 |
| 06:57 | 2 | 10 | 81 | 2,147,483,647 | 0.64 | 0 | 6.1 | 15.4 | 32.52 | 0 | 1.43 | 3.01 | 5.85 |
| 06:56 | 2 | 9.9 | 81 | 2,147,483,647 | 0.65 | 0 | 6.99 | 16.44 | 27.73 | 0 | 2.14 | 3.01 | 6.97 |
| 06:55 | 2 | 9.8 | 81 | 2,147,483,647 | 0.64 | 0 | 7.19 | 18.19 | 24.37 | 0 | 1.43 | 3 | 7.53 |
| 06:54 | 2 | 9.8 | 81 | 2,147,483,647 | 0.61 | 0 | 10.17 | 16.91 | 22.64 | 0 | 1.43 | 3.48 | 6.41 |
| 06:53 | 2 | 9.7 | 81 | 2,147,483,647 | 0.6 | 0 | 15.73 | 12.73 | 30.55 | 0 | 1.43 | 2.54 | 5.85 |
| 06:51 | 2 | 9.6 | 81 | 2,147,483,647 | 0.63 | 0 | 31.4 | 20.73 | 12.29 | 0 | 0.71 | 2.53 | 6.41 |
| 06:50 | 2 | 9.6 | 81 | 2,147,483,647 | 0.66 | 0 | 31.38 | 26.18 | 6.35 | 0 | 1.43 | 2.54 | 5.29 |
| 06:49 | 2 | 9.6 | 81 | 2,147,483,647 | 0.61 | 0 | 27.17 | 15.86 | 18.08 | 0 | 0.71 | 2.06 | 4.73 |
| 06:47 | 2 | 9.6 | 81 | 2,147,483,647 | 0.67 | 0 | 17.35 | 19.26 | 14.74 | 0 | 2.14 | 3.94 | 6.97 |